createdAt,value
2023-01-13T00:01:24.791Z,100097.45
2023-01-13T00:03:52.776Z,100092.25
2023-01-13T00:06:21.749Z,100095.64
2023-01-13T00:08:50.461Z,100096.85
2023-01-13T00:11:18.218Z,100094.20
2023-01-13T00:13:45.551Z,100100.61
2023-01-13T00:16:15.845Z,100106.15
2023-01-13T00:18:43.138Z,100102.20
2023-01-13T00:21:10.283Z,100099.29
2023-01-13T00:23:38.045Z,100101.23
2023-01-13T00:26:07.768Z,100098.27
2023-01-13T00:28:35.216Z,100098.97
2023-01-13T00:31:07.030Z,100095.33
2023-01-13T00:33:34.701Z,100096.08
2023-01-13T00:36:02.420Z,100094.83
2023-01-13T00:38:30.975Z,100092.19
2023-01-13T00:40:59.160Z,100095.30
2023-01-13T00:43:27.096Z,100094.61
2023-01-13T00:45:54.901Z,100087.73
2023-01-13T00:48:23.575Z,100087.43
2023-01-13T00:50:58.088Z,100082.27
2023-01-13T00:53:25.366Z,100083.29
2023-01-13T00:56:30.532Z,100077.58
2023-01-13T00:59:02.459Z,100075.73
2023-01-13T01:01:29.925Z,100076.92
2023-01-13T01:03:57.272Z,100072.64
2023-01-13T01:06:25.986Z,100067.31
2023-01-13T01:08:53.619Z,100060.27
2023-01-13T01:11:26.408Z,100059.33
2023-01-13T01:13:55.268Z,100054.72
2023-01-13T01:16:23.440Z,100047.91
2023-01-13T01:18:51.450Z,100047.34
2023-01-13T01:21:18.797Z,100049.48
2023-01-13T01:23:45.952Z,100052.24
2023-01-13T01:26:21.191Z,100054.27
2023-01-13T01:28:48.449Z,100055.36
2023-01-13T01:31:20.638Z,100050.63
2023-01-13T01:33:48.065Z,100048.73
2023-01-13T01:36:16.658Z,100051.52
2023-01-13T01:38:44.005Z,100053.98
2023-01-13T01:41:22.415Z,100052.69
2023-01-13T01:44:02.621Z,100053.44
2023-01-13T01:46:38.019Z,100051.69
2023-01-13T01:49:07.011Z,100045.08
2023-01-13T01:51:37.438Z,100044.35
2023-01-13T01:54:05.413Z,100044.34
2023-01-13T01:56:33.559Z,100044.17
2023-01-13T01:59:00.741Z,100043.95
2023-01-13T02:01:28.670Z,100043.58
2023-01-13T02:04:02.269Z,100041.30
2023-01-13T02:06:30.052Z,100037.84
2023-01-13T02:08:58.313Z,100031.48
2023-01-13T02:11:51.813Z,100026.17
2023-01-13T02:14:19.650Z,100023.13
2023-01-13T02:16:53.184Z,100025.03
2023-01-13T02:19:29.551Z,100023.60
2023-01-13T02:22:13.919Z,100014.16
2023-01-13T02:24:56.637Z,100011.52
2023-01-13T02:27:42.823Z,100008.62
2023-01-13T02:30:37.724Z,100004.92
2023-01-13T02:33:27.711Z,100004.52
2023-01-13T02:36:00.481Z,100002.02
2023-01-13T02:38:37.683Z,100003.86
2023-01-13T02:41:26.649Z,100001.86
2023-01-13T02:44:09.271Z,99998.69
2023-01-13T02:46:38.767Z,99998.83
2023-01-13T02:49:08.073Z,99993.79
2023-01-13T02:51:35.221Z,99985.71
2023-01-13T02:54:14.444Z,99999.31
2023-01-13T02:56:43.370Z,99998.06
2023-01-13T02:59:10.492Z,99995.85
2023-01-13T03:01:37.695Z,99999.04
2023-01-13T03:04:15.446Z,99998.58
2023-01-13T03:06:50.592Z,100000.71
2023-01-13T03:09:30.235Z,100002.65
2023-01-13T03:12:10.901Z,99997.13
2023-01-13T03:14:59.256Z,99993.56
2023-01-13T03:17:33.064Z,99991.70
2023-01-13T03:20:24.505Z,99996.67
2023-01-13T03:22:56.139Z,99995.64
2023-01-13T03:25:26.465Z,99999.73
2023-01-13T03:27:57.200Z,99991.51
2023-01-13T03:30:34.525Z,99984.92
2023-01-13T03:33:05.336Z,99986.27
2023-01-13T03:35:38.531Z,99986.73
2023-01-13T03:38:20.010Z,99985.71
2023-01-13T03:40:51.786Z,99985.27
2023-01-13T03:43:40.221Z,99994.27
2023-01-13T03:46:10.003Z,99998.50
2023-01-13T03:48:37.187Z,99995.23
2023-01-13T03:51:08.151Z,99997.91
2023-01-13T03:53:40.509Z,99990.80
2023-01-13T03:56:10.731Z,99989.50
2023-01-13T03:58:48.127Z,99986.52
2023-01-13T04:01:24.948Z,99986.04
2023-01-13T04:03:57.519Z,99984.15
2023-01-13T04:06:46.750Z,99981.38
2023-01-13T04:09:29.267Z,99985.99
2023-01-13T04:12:04.194Z,99980.34
2023-01-13T04:14:31.348Z,99981.74
2023-01-13T04:16:58.500Z,99986.04
2023-01-13T04:19:25.664Z,99982.90
2023-01-13T04:21:52.805Z,99981.38
2023-01-13T04:24:19.956Z,99984.45
2023-01-13T04:26:47.106Z,99982.79
2023-01-13T04:29:15.656Z,99981.80
2023-01-13T04:31:43.261Z,99986.64
2023-01-13T04:34:11.089Z,99985.35
2023-01-13T04:36:38.274Z,99992.61
2023-01-13T04:39:05.444Z,99993.05
2023-01-13T04:41:52.549Z,99997.20
2023-01-13T04:44:19.799Z,99999.04
2023-01-13T04:46:46.944Z,99999.62
2023-01-13T04:49:14.103Z,100001.44
2023-01-13T04:51:41.259Z,99998.05
2023-01-13T04:54:11.151Z,99993.48
2023-01-13T04:56:38.220Z,99990.65
2023-01-13T04:59:05.380Z,99993.17
2023-01-13T05:01:32.792Z,99997.55
2023-01-13T05:03:59.981Z,99998.58
2023-01-13T05:06:27.127Z,100000.02
2023-01-13T05:08:54.278Z,100003.16
2023-01-13T05:11:40.273Z,99999.22
2023-01-13T05:14:26.061Z,100000.65
2023-01-13T05:17:03.871Z,100000.44
2023-01-13T05:19:35.112Z,99999.55
2023-01-13T05:22:21.516Z,99997.40
2023-01-13T05:25:07.306Z,99997.93
2023-01-13T05:27:34.450Z,99999.47
2023-01-13T05:30:01.800Z,100000.36
2023-01-13T05:32:28.956Z,99998.37
2023-01-13T05:34:56.318Z,99998.25
2023-01-13T05:37:24.077Z,99994.75
2023-01-13T05:40:11.507Z,99997.27
2023-01-13T05:42:57.288Z,99995.15
2023-01-13T05:45:24.447Z,100000.36
2023-01-13T05:47:51.700Z,99997.56
2023-01-13T05:50:18.947Z,99998.73
2023-01-13T05:52:46.101Z,99999.02
2023-01-13T05:55:13.261Z,99984.89
2023-01-13T05:57:40.908Z,99998.50
2023-01-13T06:00:10.125Z,100001.19
2023-01-13T06:02:40.280Z,100004.88
2023-01-13T06:05:08.034Z,100004.30
2023-01-13T06:07:35.253Z,100008.02
2023-01-13T06:10:02.395Z,100010.30
2023-01-13T06:12:29.545Z,100014.92
2023-01-13T06:14:56.696Z,100019.45
2023-01-13T06:17:23.852Z,100023.10
2023-01-13T06:19:51.410Z,100021.73
2023-01-13T06:22:32.587Z,100021.77
2023-01-13T06:24:59.756Z,100019.09
2023-01-13T06:27:26.888Z,100021.95
2023-01-13T06:29:54.041Z,100019.60
2023-01-13T06:32:26.866Z,100023.41
2023-01-13T06:34:57.251Z,100023.20
2023-01-13T06:37:26.452Z,100027.33
2023-01-13T06:39:57.077Z,100030.02
2023-01-13T06:42:53.625Z,100028.33
2023-01-13T06:45:21.140Z,100023.61
2023-01-13T06:47:48.245Z,100028.10
2023-01-13T06:50:17.034Z,100027.25
2023-01-13T06:52:44.380Z,100022.27
2023-01-13T06:55:11.530Z,100023.13
2023-01-13T06:57:54.509Z,100022.89
2023-01-13T07:00:22.243Z,100025.17
2023-01-13T07:02:49.511Z,100027.36
2023-01-13T07:05:17.326Z,100032.95
2023-01-13T07:07:44.489Z,100033.96
2023-01-13T07:10:13.384Z,100037.09
2023-01-13T07:13:00.403Z,100042.02
2023-01-13T07:15:27.553Z,100040.23
2023-01-13T07:17:54.703Z,100037.35
2023-01-13T07:20:21.873Z,100042.30
2023-01-13T07:22:49.422Z,100047.08
2023-01-13T07:25:16.543Z,100047.70
2023-01-13T07:27:43.620Z,100048.98
2023-01-13T07:30:11.829Z,100045.13
2023-01-13T07:32:38.948Z,100039.44
2023-01-13T07:35:07.026Z,100033.65
2023-01-13T07:37:35.103Z,100031.73
2023-01-13T07:40:03.354Z,100033.33
2023-01-13T07:42:49.167Z,100028.81
2023-01-13T07:45:16.324Z,100029.24
2023-01-13T07:47:43.468Z,100027.98
2023-01-13T07:50:11.202Z,100026.84
2023-01-13T07:52:38.299Z,100023.45
2023-01-13T07:55:05.997Z,100027.08
2023-01-13T07:57:33.204Z,100019.62
2023-01-13T08:00:00.367Z,100021.33
2023-01-13T08:02:27.693Z,100025.02
2023-01-13T08:04:54.968Z,100023.58
2023-01-13T08:07:22.222Z,100021.94
2023-01-13T08:09:49.686Z,100018.53
2023-01-13T08:12:35.695Z,100019.43
2023-01-13T08:15:03.032Z,100004.41
2023-01-13T08:17:30.227Z,100015.19
2023-01-13T08:19:57.438Z,100013.32
2023-01-13T08:22:24.900Z,100009.56
2023-01-13T08:24:52.047Z,100005.85
2023-01-13T08:27:20.748Z,100009.40
2023-01-13T08:29:47.898Z,100004.25
2023-01-13T08:32:15.043Z,100006.92
2023-01-13T08:34:42.087Z,100011.60
2023-01-13T08:37:09.137Z,100011.72
2023-01-13T08:39:36.509Z,100009.54
2023-01-13T08:42:04.838Z,100003.90
2023-01-13T08:44:32.233Z,100004.33
2023-01-13T12:49:06.928Z,99915.02
2023-01-13T12:52:10.961Z,99919.56
2023-01-13T12:54:41.041Z,99923.88
2023-01-13T12:57:34.614Z,99923.20
2023-01-13T13:00:05.005Z,99922.24
2023-01-13T13:02:33.176Z,99926.77
2023-01-13T13:05:23.926Z,99915.42
2023-01-13T13:08:13.248Z,99925.45
2023-01-13T13:10:45.376Z,99928.80
2023-01-13T13:13:22.955Z,99929.89
2023-01-13T13:15:50.884Z,99923.02
2023-01-13T13:18:18.003Z,99922.41
2023-01-13T13:20:54.500Z,99920.29
2023-01-13T13:23:35.737Z,99925.11
2023-01-13T13:26:45.976Z,99925.63
2023-01-13T13:29:19.387Z,99921.66
2023-01-13T13:32:05.488Z,99924.77
2023-01-13T13:34:38.062Z,99925.43
2023-01-13T13:37:08.284Z,99921.25
2023-01-13T13:40:00.215Z,99917.63
2023-01-13T13:42:47.041Z,99920.17
2023-01-13T13:45:39.785Z,99919.73
2023-01-13T13:48:27.418Z,99916.70
2023-01-13T13:51:02.555Z,99925.13
2023-01-13T13:53:34.802Z,99925.55
2023-01-13T13:56:02.912Z,99930.01
2023-01-13T13:58:31.767Z,99933.38
2023-01-13T14:00:59.012Z,99929.66
2023-01-13T14:03:31.762Z,99916.34
2023-01-13T14:05:59.797Z,99915.91
2023-01-13T14:08:37.877Z,99913.32
2023-01-13T14:11:27.982Z,99909.29
2023-01-13T14:14:06.167Z,99908.94
2023-01-13T14:16:36.121Z,99907.65
2023-01-13T14:19:03.755Z,99904.31
2023-01-13T14:21:30.991Z,99908.15
2023-01-13T14:23:59.541Z,99903.05
2023-01-13T14:26:28.489Z,99896.52
2023-01-13T14:28:56.146Z,99902.45
2023-01-13T14:31:23.333Z,99895.94
2023-01-13T14:34:01.690Z,99902.20
2023-01-13T14:36:31.816Z,99898.16
2023-01-13T14:39:05.519Z,99894.55
2023-01-13T14:41:53.586Z,99894.55
2023-01-13T14:44:29.218Z,99896.36
2023-01-13T14:47:17.664Z,99896.38
2023-01-13T14:49:52.184Z,99899.39
2023-01-13T14:52:24.248Z,99901.60
2023-01-13T14:55:12.467Z,99905.23
2023-01-13T14:57:41.635Z,99906.23
2023-01-13T15:00:14.997Z,99904.10
2023-01-13T15:02:43.131Z,99904.42
2023-01-13T15:05:19.631Z,99898.64
2023-01-13T15:07:50.790Z,99899.58
2023-01-13T15:10:19.005Z,99892.41
2023-01-13T15:12:46.207Z,99894.85
2023-01-13T15:15:35.819Z,99897.84
2023-01-13T15:18:21.676Z,99902.30
2023-01-13T15:20:51.050Z,99901.34
2023-01-13T15:23:19.257Z,99904.59
2023-01-13T15:25:46.613Z,99898.46
2023-01-13T15:28:21.755Z,99893.98
2023-01-13T15:30:49.787Z,99896.55
2023-01-13T15:33:17.182Z,99895.96
2023-01-13T15:35:46.193Z,99891.14
2023-01-13T15:38:14.863Z,99890.18
2023-01-13T15:40:46.007Z,99878.60
2023-01-13T15:43:36.408Z,99883.65
2023-01-13T15:46:23.293Z,99888.94
2023-01-13T15:48:53.167Z,99891.69
2023-01-13T15:51:22.123Z,99896.09
2023-01-13T15:53:49.278Z,99892.17
2023-01-13T15:56:22.648Z,99895.58
2023-01-13T15:58:49.725Z,99894.36
2023-01-13T16:01:16.938Z,99890.23
2023-01-13T20:22:07.954Z,99880.85
2023-01-13T20:24:35.309Z,99875.09
2023-01-13T20:27:02.561Z,99873.85
2023-01-13T20:29:29.930Z,99875.92
2023-01-13T20:31:57.116Z,99878.10
2023-01-13T20:34:24.946Z,99874.05
2023-01-13T20:36:52.088Z,99876.88
2023-01-13T20:39:21.386Z,99883.50
2023-01-13T20:42:07.101Z,99887.89
2023-01-13T20:44:34.327Z,99886.18
2023-01-13T20:47:02.875Z,99889.16
2023-01-13T20:49:30.581Z,99888.84
2023-01-13T20:51:57.943Z,99892.89
2023-01-13T20:54:25.190Z,99891.16
2023-01-13T20:56:52.341Z,99893.45
2023-01-13T20:59:19.510Z,99898.73
2023-01-13T21:01:46.765Z,99903.12
2023-01-13T21:04:13.997Z,99902.30
2023-01-13T21:06:41.868Z,99901.51
2023-01-13T21:09:09.324Z,99906.09
2023-01-13T21:11:55.320Z,99910.70
2023-01-13T21:14:42.334Z,99910.81
2023-01-13T21:17:33.038Z,99916.42
2023-01-13T21:20:00.295Z,99918.96
2023-01-13T21:22:27.454Z,99915.45
2023-01-13T21:24:54.593Z,99910.23
2023-01-13T21:27:21.750Z,99910.34
2023-01-13T21:29:48.895Z,99904.62
2023-01-13T21:32:16.252Z,99897.33
2023-01-13T21:34:43.403Z,99900.14
2023-01-13T21:37:10.563Z,99889.71
2023-01-13T21:39:37.707Z,99903.35
2023-01-13T21:42:23.615Z,99902.02
2023-01-13T21:45:09.763Z,99879.31
2023-01-13T21:47:49.135Z,99887.80
2023-01-13T21:50:20.964Z,99889.47
2023-01-13T21:52:48.869Z,99888.95
2023-01-13T21:55:28.004Z,99889.98
2023-01-13T21:58:12.780Z,99890.12
2023-01-13T22:00:41.056Z,99888.90
2023-01-13T22:03:08.834Z,99889.55
2023-01-13T22:05:36.180Z,99884.78
2023-01-13T22:08:03.856Z,99888.67
2023-01-13T22:10:31.814Z,99883.04
2023-01-13T22:13:20.607Z,99884.05
2023-01-13T22:15:47.831Z,99880.73
2023-01-13T22:18:15.073Z,99881.07
2023-01-13T22:20:42.430Z,99875.48
2023-01-13T22:23:09.581Z,99876.38
2023-01-13T22:25:36.735Z,99876.38
2023-01-13T22:28:06.348Z,99879.68
2023-01-13T22:30:33.502Z,99881.77
2023-01-13T22:33:00.751Z,99878.02
2023-01-13T22:35:27.815Z,99878.13
2023-01-13T22:37:54.949Z,99876.84
2023-01-13T22:40:22.203Z,99878.12
2023-01-13T22:42:49.256Z,99882.66
2023-01-13T22:45:16.621Z,99882.61
2023-01-13T22:47:43.762Z,99881.02
2023-01-13T22:50:12.748Z,99879.85
2023-01-13T22:52:39.915Z,99880.65
2023-01-13T22:55:07.689Z,99876.33
2023-01-13T22:57:46.979Z,99877.81
2023-01-13T23:00:19.261Z,99876.88
2023-01-13T23:02:46.955Z,99880.36
2023-01-13T23:05:14.205Z,99874.95
2023-01-13T23:07:41.557Z,99880.65
2023-01-13T23:10:09.486Z,99877.76
2023-01-13T23:12:36.577Z,99880.98
2023-01-13T23:15:05.372Z,99883.56
2023-01-13T23:17:32.520Z,99874.90
2023-01-13T23:19:59.664Z,99877.22
2023-01-13T23:22:26.815Z,99876.69
2023-01-13T23:24:53.972Z,99877.32
2023-01-13T23:27:21.120Z,99877.23
2023-01-13T23:29:49.297Z,99878.23
2023-01-13T23:32:16.444Z,99874.46
2023-01-13T23:34:43.594Z,99871.11
2023-01-13T23:37:10.754Z,99872.09
2023-01-13T23:39:37.900Z,99867.85
2023-01-13T23:42:05.054Z,99868.13
2023-01-13T23:44:32.200Z,99870.91
2023-01-13T23:46:59.356Z,99869.45
2023-01-13T23:49:26.449Z,99862.89
2023-01-13T23:51:53.762Z,99859.95
2023-01-13T23:54:20.908Z,99862.61
2023-01-13T23:56:49.902Z,99865.77
2023-01-13T23:59:17.057Z,99866.94
